sensor_id;sensor_type;location;lat;lon;timestamp;temperature;humidity
21331;DHT22;10824;51.632;4.950;2023-04-06T00:01:44;6.40;1.00
21331;DHT22;10824;51.632;4.950;2023-04-06T00:04:11;6.40;1.00
21331;DHT22;10824;51.632;4.950;2023-04-06T00:06:38;6.50;1.00
21331;DHT22;10824;51.632;4.950;2023-04-06T00:09:05;6.50;1.00
21331;DHT22;10824;51.632;4.950;2023-04-06T00:11:32;6.50;1.00
21331;DHT22;10824;51.632;4.950;2023-04-06T00:13:59;6.50;1.00
21331;DHT22;10824;51.632;4.950;2023-04-06T00:16:27;6.50;1.00
21331;DHT22;10824;51.632;4.950;2023-04-06T00:18:56;6.50;1.00
21331;DHT22;10824;51.632;4.950;2023-04-06T00:21:23;6.40;1.00
21331;DHT22;10824;51.632;4.950;2023-04-06T00:23:50;6.30;1.00
21331;DHT22;10824;51.632;4.950;2023-04-06T00:26:17;6.30;1.00
21331;DHT22;10824;51.632;4.950;2023-04-06T00:28:46;6.30;1.00
21331;DHT22;10824;51.632;4.950;2023-04-06T00:31:13;6.30;1.00
21331;DHT22;10824;51.632;4.950;2023-04-06T00:33:40;6.40;1.00
21331;DHT22;10824;51.632;4.950;2023-04-06T00:36:07;6.40;1.00
21331;DHT22;10824;51.632;4.950;2023-04-06T00:38:35;6.40;1.00
21331;DHT22;10824;51.632;4.950;2023-04-06T00:41:03;6.30;1.00
21331;DHT22;10824;51.632;4.950;2023-04-06T00:43:31;6.30;1.00
21331;DHT22;10824;51.632;4.950;2023-04-06T00:45:59;6.30;1.00
21331;DHT22;10824;51.632;4.950;2023-04-06T00:48:26;6.30;1.00
21331;DHT22;10824;51.632;4.950;2023-04-06T00:50:53;6.30;1.00
21331;DHT22;10824;51.632;4.950;2023-04-06T00:53:20;6.30;1.00
21331;DHT22;10824;51.632;4.950;2023-04-06T00:55:49;6.30;1.00
21331;DHT22;10824;51.632;4.950;2023-04-06T00:58:17;6.30;1.00
21331;DHT22;10824;51.632;4.950;2023-04-06T01:00:50;6.30;1.00
21331;DHT22;10824;51.632;4.950;2023-04-06T01:03:20;6.30;1.00
21331;DHT22;10824;51.632;4.950;2023-04-06T01:05:47;6.30;1.00
21331;DHT22;10824;51.632;4.950;2023-04-06T01:08:19;6.30;1.00
21331;DHT22;10824;51.632;4.950;2023-04-06T01:10:52;6.30;1.00
21331;DHT22;10824;51.632;4.950;2023-04-06T01:13:24;6.20;1.00
21331;DHT22;10824;51.632;4.950;2023-04-06T01:15:54;6.20;1.00
21331;DHT22;10824;51.632;4.950;2023-04-06T01:18:43;6.20;1.00
21331;DHT22;10824;51.632;4.950;2023-04-06T01:21:19;6.20;1.00
21331;DHT22;10824;51.632;4.950;2023-04-06T01:24:09;6.30;1.00
21331;DHT22;10824;51.632;4.950;2023-04-06T01:26:58;6.20;1.00
21331;DHT22;10824;51.632;4.950;2023-04-06T01:29:31;6.10;1.00
21331;DHT22;10824;51.632;4.950;2023-04-06T01:32:00;6.20;1.00
21331;DHT22;10824;51.632;4.950;2023-04-06T01:34:33;6.10;1.00
21331;DHT22;10824;51.632;4.950;2023-04-06T01:37:03;6.10;1.00
21331;DHT22;10824;51.632;4.950;2023-04-06T01:39:31;6.10;1.00
21331;DHT22;10824;51.632;4.950;2023-04-06T01:42:01;6.10;1.00
21331;DHT22;10824;51.632;4.950;2023-04-06T01:44:28;6.10;1.00
21331;DHT22;10824;51.632;4.950;2023-04-06T01:47:06;6.00;1.00
21331;DHT22;10824;51.632;4.950;2023-04-06T01:49:33;6.10;1.00
21331;DHT22;10824;51.632;4.950;2023-04-06T01:52:02;6.00;1.00
21331;DHT22;10824;51.632;4.950;2023-04-06T01:54:30;6.00;1.00
21331;DHT22;10824;51.632;4.950;2023-04-06T01:57:10;6.00;1.00
21331;DHT22;10824;51.632;4.950;2023-04-06T01:59:42;6.10;1.00
21331;DHT22;10824;51.632;4.950;2023-04-06T02:02:18;6.00;1.00
21331;DHT22;10824;51.632;4.950;2023-04-06T02:04:54;6.00;1.00
21331;DHT22;10824;51.632;4.950;2023-04-06T02:07:22;6.00;1.00
21331;DHT22;10824;51.632;4.950;2023-04-06T02:09:50;6.00;1.00
21331;DHT22;10824;51.632;4.950;2023-04-06T02:12:24;5.90;1.00
21331;DHT22;10824;51.632;4.950;2023-04-06T02:14:51;6.00;1.00
21331;DHT22;10824;51.632;4.950;2023-04-06T02:17:19;5.90;1.00
21331;DHT22;10824;51.632;4.950;2023-04-06T02:19:46;5.90;1.00
21331;DHT22;10824;51.632;4.950;2023-04-06T02:22:13;5.90;1.00
21331;DHT22;10824;51.632;4.950;2023-04-06T02:24:40;5.90;1.00
21331;DHT22;10824;51.632;4.950;2023-04-06T02:27:07;5.90;1.00
21331;DHT22;10824;51.632;4.950;2023-04-06T02:29:34;5.80;1.00
21331;DHT22;10824;51.632;4.950;2023-04-06T02:32:03;5.80;1.00
21331;DHT22;10824;51.632;4.950;2023-04-06T02:34:32;5.80;1.00
21331;DHT22;10824;51.632;4.950;2023-04-06T02:36:59;5.80;1.00
21331;DHT22;10824;51.632;4.950;2023-04-06T02:39:26;5.70;1.00
21331;DHT22;10824;51.632;4.950;2023-04-06T02:41:54;5.70;1.00
21331;DHT22;10824;51.632;4.950;2023-04-06T02:44:24;5.70;1.50
21331;DHT22;10824;51.632;4.950;2023-04-06T02:46:53;5.80;1.40
21331;DHT22;10824;51.632;4.950;2023-04-06T02:49:21;5.70;1.40
21331;DHT22;10824;51.632;4.950;2023-04-06T02:51:50;5.70;1.40
21331;DHT22;10824;51.632;4.950;2023-04-06T02:54:22;5.70;1.40
21331;DHT22;10824;51.632;4.950;2023-04-06T02:56:49;5.60;1.30
21331;DHT22;10824;51.632;4.950;2023-04-06T02:59:17;5.70;1.40
21331;DHT22;10824;51.632;4.950;2023-04-06T03:01:55;5.60;1.30
21331;DHT22;10824;51.632;4.950;2023-04-06T03:04:22;5.60;1.60
21331;DHT22;10824;51.632;4.950;2023-04-06T03:06:54;5.60;1.40
21331;DHT22;10824;51.632;4.950;2023-04-06T03:09:33;5.60;2.10
21331;DHT22;10824;51.632;4.950;2023-04-06T03:12:00;5.60;2.20
21331;DHT22;10824;51.632;4.950;2023-04-06T03:14:32;5.60;2.50
21331;DHT22;10824;51.632;4.950;2023-04-06T03:17:00;5.60;2.30
21331;DHT22;10824;51.632;4.950;2023-04-06T03:19:29;5.50;2.20
21331;DHT22;10824;51.632;4.950;2023-04-06T03:21:58;5.60;3.00
21331;DHT22;10824;51.632;4.950;2023-04-06T03:24:25;5.50;2.70
21331;DHT22;10824;51.632;4.950;2023-04-06T03:26:52;5.60;2.80
21331;DHT22;10824;51.632;4.950;2023-04-06T03:29:19;5.50;3.00
21331;DHT22;10824;51.632;4.950;2023-04-06T03:31:47;5.50;3.10
21331;DHT22;10824;51.632;4.950;2023-04-06T03:34:23;5.50;3.20
21331;DHT22;10824;51.632;4.950;2023-04-06T03:36:50;5.50;3.30
21331;DHT22;10824;51.632;4.950;2023-04-06T03:39:36;5.50;3.30
21331;DHT22;10824;51.632;4.950;2023-04-06T03:42:04;5.50;3.30
21331;DHT22;10824;51.632;4.950;2023-04-06T03:44:34;5.50;3.40
21331;DHT22;10824;51.632;4.950;2023-04-06T03:47:04;5.50;3.10
21331;DHT22;10824;51.632;4.950;2023-04-06T03:49:31;5.50;3.40
21331;DHT22;10824;51.632;4.950;2023-04-06T03:52:01;5.60;3.80
21331;DHT22;10824;51.632;4.950;2023-04-06T03:54:28;5.60;3.60
21331;DHT22;10824;51.632;4.950;2023-04-06T03:56:55;5.60;3.30
21331;DHT22;10824;51.632;4.950;2023-04-06T03:59:27;5.60;3.10
21331;DHT22;10824;51.632;4.950;2023-04-06T04:01:54;5.60;3.30
21331;DHT22;10824;51.632;4.950;2023-04-06T04:04:22;5.60;3.40
21331;DHT22;10824;51.632;4.950;2023-04-06T04:06:50;5.60;3.40
21331;DHT22;10824;51.632;4.950;2023-04-06T04:09:17;5.70;3.50
21331;DHT22;10824;51.632;4.950;2023-04-06T04:11:44;5.70;3.30
21331;DHT22;10824;51.632;4.950;2023-04-06T04:14:13;5.60;3.50
21331;DHT22;10824;51.632;4.950;2023-04-06T04:16:40;5.60;3.60
21331;DHT22;10824;51.632;4.950;2023-04-06T04:19:08;5.60;3.70
21331;DHT22;10824;51.632;4.950;2023-04-06T04:21:43;5.60;3.60
21331;DHT22;10824;51.632;4.950;2023-04-06T04:24:14;5.70;3.60
21331;DHT22;10824;51.632;4.950;2023-04-06T04:26:41;5.70;3.70
21331;DHT22;10824;51.632;4.950;2023-04-06T04:29:09;5.60;3.90
21331;DHT22;10824;51.632;4.950;2023-04-06T04:31:37;5.60;4.10
21331;DHT22;10824;51.632;4.950;2023-04-06T04:34:11;5.60;4.50
21331;DHT22;10824;51.632;4.950;2023-04-06T04:36:38;5.60;4.60
21331;DHT22;10824;51.632;4.950;2023-04-06T04:39:11;5.60;4.60
21331;DHT22;10824;51.632;4.950;2023-04-06T04:41:43;5.60;4.90
21331;DHT22;10824;51.632;4.950;2023-04-06T04:44:11;5.60;4.80
21331;DHT22;10824;51.632;4.950;2023-04-06T04:46:39;5.60;5.10
21331;DHT22;10824;51.632;4.950;2023-04-06T04:49:07;5.60;5.00
21331;DHT22;10824;51.632;4.950;2023-04-06T04:51:35;5.60;5.00
21331;DHT22;10824;51.632;4.950;2023-04-06T04:54:10;5.60;5.30
21331;DHT22;10824;51.632;4.950;2023-04-06T04:56:39;5.60;5.50
21331;DHT22;10824;51.632;4.950;2023-04-06T04:59:26;5.60;5.80
21331;DHT22;10824;51.632;4.950;2023-04-06T05:01:59;5.70;6.10
21331;DHT22;10824;51.632;4.950;2023-04-06T05:04:46;5.60;6.60
21331;DHT22;10824;51.632;4.950;2023-04-06T05:07:19;5.60;6.50
21331;DHT22;10824;51.632;4.950;2023-04-06T05:09:49;5.60;6.60
21331;DHT22;10824;51.632;4.950;2023-04-06T05:12:18;5.60;6.80
21331;DHT22;10824;51.632;4.950;2023-04-06T05:14:59;5.70;7.50
21331;DHT22;10824;51.632;4.950;2023-04-06T05:17:26;5.70;7.20
21331;DHT22;10824;51.632;4.950;2023-04-06T05:19:54;5.70;7.40
21331;DHT22;10824;51.632;4.950;2023-04-06T05:22:24;5.70;7.50
21331;DHT22;10824;51.632;4.950;2023-04-06T05:25:02;5.70;7.70
21331;DHT22;10824;51.632;4.950;2023-04-06T05:27:30;5.70;7.80
21331;DHT22;10824;51.632;4.950;2023-04-06T05:30:02;5.70;8.10
21331;DHT22;10824;51.632;4.950;2023-04-06T05:32:34;5.70;8.50
21331;DHT22;10824;51.632;4.950;2023-04-06T05:35:02;5.70;8.60
21331;DHT22;10824;51.632;4.950;2023-04-06T05:37:29;5.70;8.80
21331;DHT22;10824;51.632;4.950;2023-04-06T05:39:58;5.70;9.60
21331;DHT22;10824;51.632;4.950;2023-04-06T05:42:25;5.80;9.00
21331;DHT22;10824;51.632;4.950;2023-04-06T05:44:57;5.70;9.20
21331;DHT22;10824;51.632;4.950;2023-04-06T05:47:25;5.70;9.60
21331;DHT22;10824;51.632;4.950;2023-04-06T05:50:02;5.80;9.60
21331;DHT22;10824;51.632;4.950;2023-04-06T05:52:33;5.80;9.50
21331;DHT22;10824;51.632;4.950;2023-04-06T05:55:00;5.80;9.80
21331;DHT22;10824;51.632;4.950;2023-04-06T05:57:28;5.80;9.80
21331;DHT22;10824;51.632;4.950;2023-04-06T05:59:55;5.90;9.90
21331;DHT22;10824;51.632;4.950;2023-04-06T06:02:27;5.90;9.70
21331;DHT22;10824;51.632;4.950;2023-04-06T06:04:57;5.90;9.90
21331;DHT22;10824;51.632;4.950;2023-04-06T06:07:25;5.90;9.60
21331;DHT22;10824;51.632;4.950;2023-04-06T06:09:58;5.90;9.30
21331;DHT22;10824;51.632;4.950;2023-04-06T06:12:30;5.90;9.50
21331;DHT22;10824;51.632;4.950;2023-04-06T06:14:58;6.00;9.80
21331;DHT22;10824;51.632;4.950;2023-04-06T06:17:27;5.90;9.70
21331;DHT22;10824;51.632;4.950;2023-04-06T06:19:55;6.00;10.50
21331;DHT22;10824;51.632;4.950;2023-04-06T06:22:22;6.10;10.80
21331;DHT22;10824;51.632;4.950;2023-04-06T06:24:49;6.00;10.40
21331;DHT22;10824;51.632;4.950;2023-04-06T06:27:19;6.00;11.20
21331;DHT22;10824;51.632;4.950;2023-04-06T06:29:47;6.10;11.40
21331;DHT22;10824;51.632;4.950;2023-04-06T06:32:14;6.10;11.90
21331;DHT22;10824;51.632;4.950;2023-04-06T06:34:42;6.00;11.80
21331;DHT22;10824;51.632;4.950;2023-04-06T06:37:10;6.10;11.90
21331;DHT22;10824;51.632;4.950;2023-04-06T06:39:38;6.10;12.20
21331;DHT22;10824;51.632;4.950;2023-04-06T06:42:05;6.00;12.40
21331;DHT22;10824;51.632;4.950;2023-04-06T06:44:52;6.00;12.70
21331;DHT22;10824;51.632;4.950;2023-04-06T06:47:20;6.10;13.00
21331;DHT22;10824;51.632;4.950;2023-04-06T06:49:48;6.10;13.10
21331;DHT22;10824;51.632;4.950;2023-04-06T06:52:15;6.20;13.80
21331;DHT22;10824;51.632;4.950;2023-04-06T06:54:43;6.20;13.80
21331;DHT22;10824;51.632;4.950;2023-04-06T06:57:10;6.20;13.70
21331;DHT22;10824;51.632;4.950;2023-04-06T06:59:38;6.20;13.60
21331;DHT22;10824;51.632;4.950;2023-04-06T07:02:06;6.20;13.40
21331;DHT22;10824;51.632;4.950;2023-04-06T07:04:33;6.20;13.60
21331;DHT22;10824;51.632;4.950;2023-04-06T07:07:00;6.20;14.00
21331;DHT22;10824;51.632;4.950;2023-04-06T07:09:28;6.30;14.10
21331;DHT22;10824;51.632;4.950;2023-04-06T07:11:55;6.40;14.00
21331;DHT22;10824;51.632;4.950;2023-04-06T07:14:23;6.50;12.80
21331;DHT22;10824;51.632;4.950;2023-04-06T07:16:51;6.50;12.80
21331;DHT22;10824;51.632;4.950;2023-04-06T07:19:18;6.50;13.40
21331;DHT22;10824;51.632;4.950;2023-04-06T07:21:45;6.50;13.40
21331;DHT22;10824;51.632;4.950;2023-04-06T07:24:13;6.60;12.60
21331;DHT22;10824;51.632;4.950;2023-04-06T07:26:43;6.70;12.10
21331;DHT22;10824;51.632;4.950;2023-04-06T07:29:11;6.80;11.60
21331;DHT22;10824;51.632;4.950;2023-04-06T07:31:40;6.80;12.00
21331;DHT22;10824;51.632;4.950;2023-04-06T07:34:08;6.90;11.80
21331;DHT22;10824;51.632;4.950;2023-04-06T07:36:37;7.00;11.80
21331;DHT22;10824;51.632;4.950;2023-04-06T07:39:04;7.10;12.70
21331;DHT22;10824;51.632;4.950;2023-04-06T07:41:31;7.00;12.10
21331;DHT22;10824;51.632;4.950;2023-04-06T07:43:59;7.10;12.80
21331;DHT22;10824;51.632;4.950;2023-04-06T07:46:27;7.20;13.00
21331;DHT22;10824;51.632;4.950;2023-04-06T07:48:56;7.20;13.60
21331;DHT22;10824;51.632;4.950;2023-04-06T07:51:24;7.30;13.40
21331;DHT22;10824;51.632;4.950;2023-04-06T07:53:52;7.30;13.70
21331;DHT22;10824;51.632;4.950;2023-04-06T07:56:19;7.30;13.40
21331;DHT22;10824;51.632;4.950;2023-04-06T07:58:48;7.40;13.70
21331;DHT22;10824;51.632;4.950;2023-04-06T08:01:18;7.50;13.60
21331;DHT22;10824;51.632;4.950;2023-04-06T08:03:45;7.50;13.50
21331;DHT22;10824;51.632;4.950;2023-04-06T08:06:14;7.50;13.00
21331;DHT22;10824;51.632;4.950;2023-04-06T08:08:41;7.70;13.60
21331;DHT22;10824;51.632;4.950;2023-04-06T08:11:09;7.70;12.90
21331;DHT22;10824;51.632;4.950;2023-04-06T08:13:36;7.80;12.80
21331;DHT22;10824;51.632;4.950;2023-04-06T08:16:03;7.90;12.90
21331;DHT22;10824;51.632;4.950;2023-04-06T08:18:31;8.00;12.80
21331;DHT22;10824;51.632;4.950;2023-04-06T08:20:59;8.10;12.50
21331;DHT22;10824;51.632;4.950;2023-04-06T08:23:27;8.00;12.70
21331;DHT22;10824;51.632;4.950;2023-04-06T08:25:54;8.10;12.70
21331;DHT22;10824;51.632;4.950;2023-04-06T08:28:22;8.10;13.50
21331;DHT22;10824;51.632;4.950;2023-04-06T08:30:50;8.10;13.90
21331;DHT22;10824;51.632;4.950;2023-04-06T08:33:17;8.20;14.20
21331;DHT22;10824;51.632;4.950;2023-04-06T08:35:44;8.30;14.90
21331;DHT22;10824;51.632;4.950;2023-04-06T08:38:11;8.30;14.80
21331;DHT22;10824;51.632;4.950;2023-04-06T08:40:39;8.40;15.20
21331;DHT22;10824;51.632;4.950;2023-04-06T08:43:09;8.50;15.50
21331;DHT22;10824;51.632;4.950;2023-04-06T08:45:38;8.50;17.10
21331;DHT22;10824;51.632;4.950;2023-04-06T08:48:06;8.50;19.30
21331;DHT22;10824;51.632;4.950;2023-04-06T08:50:35;8.50;20.10
21331;DHT22;10824;51.632;4.950;2023-04-06T08:53:02;8.50;22.50
21331;DHT22;10824;51.632;4.950;2023-04-06T08:55:29;8.50;23.70
21331;DHT22;10824;51.632;4.950;2023-04-06T08:57:59;8.50;25.30
21331;DHT22;10824;51.632;4.950;2023-04-06T09:00:27;8.50;28.50
21331;DHT22;10824;51.632;4.950;2023-04-06T09:02:55;8.50;31.30
21331;DHT22;10824;51.632;4.950;2023-04-06T09:05:25;8.60;32.90
21331;DHT22;10824;51.632;4.950;2023-04-06T09:07:52;8.60;34.60
21331;DHT22;10824;51.632;4.950;2023-04-06T09:10:19;8.50;35.10
21331;DHT22;10824;51.632;4.950;2023-04-06T09:12:48;8.60;39.30
21331;DHT22;10824;51.632;4.950;2023-04-06T09:15:20;8.60;40.80
21331;DHT22;10824;51.632;4.950;2023-04-06T09:17:50;8.50;43.00
21331;DHT22;10824;51.632;4.950;2023-04-06T09:20:26;8.60;48.30
21331;DHT22;10824;51.632;4.950;2023-04-06T09:22:55;8.50;47.00
21331;DHT22;10824;51.632;4.950;2023-04-06T09:25:24;8.40;49.10
21331;DHT22;10824;51.632;4.950;2023-04-06T09:28:01;8.50;53.40
21331;DHT22;10824;51.632;4.950;2023-04-06T09:30:29;8.50;55.10
21331;DHT22;10824;51.632;4.950;2023-04-06T09:32:57;8.50;55.90
21331;DHT22;10824;51.632;4.950;2023-04-06T09:35:26;8.40;56.20
21331;DHT22;10824;51.632;4.950;2023-04-06T09:37:54;8.40;56.30
21331;DHT22;10824;51.632;4.950;2023-04-06T09:40:22;8.40;58.20
21331;DHT22;10824;51.632;4.950;2023-04-06T09:42:51;8.40;59.80
21331;DHT22;10824;51.632;4.950;2023-04-06T09:45:20;8.50;63.30
21331;DHT22;10824;51.632;4.950;2023-04-06T09:47:48;8.50;64.40
21331;DHT22;10824;51.632;4.950;2023-04-06T09:50:19;8.50;66.10
21331;DHT22;10824;51.632;4.950;2023-04-06T09:52:50;8.50;69.70
21331;DHT22;10824;51.632;4.950;2023-04-06T09:55:23;8.70;75.90
21331;DHT22;10824;51.632;4.950;2023-04-06T09:58:06;8.50;74.10
21331;DHT22;10824;51.632;4.950;2023-04-06T10:00:44;8.60;80.10
21331;DHT22;10824;51.632;4.950;2023-04-06T10:06:00;8.70;83.00
21331;DHT22;10824;51.632;4.950;2023-04-06T10:08:28;8.50;81.20
21331;DHT22;10824;51.632;4.950;2023-04-06T10:10:58;8.40;80.90
21331;DHT22;10824;51.632;4.950;2023-04-06T10:13:27;8.60;85.50
21331;DHT22;10824;51.632;4.950;2023-04-06T10:15:56;8.50;82.90
21331;DHT22;10824;51.632;4.950;2023-04-06T10:18:24;8.40;83.20
21331;DHT22;10824;51.632;4.950;2023-04-06T10:20:53;8.50;86.70
21331;DHT22;10824;51.632;4.950;2023-04-06T10:23:36;8.60;88.40
21331;DHT22;10824;51.632;4.950;2023-04-06T10:26:05;8.60;89.90
21331;DHT22;10824;51.632;4.950;2023-04-06T10:28:41;8.60;89.90
21331;DHT22;10824;51.632;4.950;2023-04-06T10:31:08;8.60;88.50
21331;DHT22;10824;51.632;4.950;2023-04-06T10:33:36;8.70;90.30
21331;DHT22;10824;51.632;4.950;2023-04-06T10:36:14;8.60;90.20
21331;DHT22;10824;51.632;4.950;2023-04-06T10:38:42;8.60;89.40
21331;DHT22;10824;51.632;4.950;2023-04-06T10:41:11;8.50;83.70
21331;DHT22;10824;51.632;4.950;2023-04-06T10:43:41;8.60;87.70
21331;DHT22;10824;51.632;4.950;2023-04-06T10:46:12;8.60;85.10
21331;DHT22;10824;51.632;4.950;2023-04-06T10:48:44;8.60;83.60
21331;DHT22;10824;51.632;4.950;2023-04-06T10:51:16;8.60;84.00
21331;DHT22;10824;51.632;4.950;2023-04-06T10:53:45;8.60;83.40
21331;DHT22;10824;51.632;4.950;2023-04-06T10:56:15;8.70;81.60
21331;DHT22;10824;51.632;4.950;2023-04-06T10:58:50;8.80;83.80
21331;DHT22;10824;51.632;4.950;2023-04-06T11:01:20;8.90;83.90
21331;DHT22;10824;51.632;4.950;2023-04-06T11:03:52;8.90;82.80
21331;DHT22;10824;51.632;4.950;2023-04-06T11:06:27;8.90;80.70
21331;DHT22;10824;51.632;4.950;2023-04-06T11:08:58;9.00;83.50
21331;DHT22;10824;51.632;4.950;2023-04-06T11:11:29;9.10;80.70
21331;DHT22;10824;51.632;4.950;2023-04-06T11:13:59;9.00;83.20
21331;DHT22;10824;51.632;4.950;2023-04-06T11:16:29;9.20;86.50
21331;DHT22;10824;51.632;4.950;2023-04-06T11:18:58;9.00;82.50
21331;DHT22;10824;51.632;4.950;2023-04-06T11:21:37;9.00;81.30
21331;DHT22;10824;51.632;4.950;2023-04-06T11:24:10;9.00;84.70
21331;DHT22;10824;51.632;4.950;2023-04-06T11:29:12;9.00;84.20
21331;DHT22;10824;51.632;4.950;2023-04-06T11:31:44;8.90;83.90
21331;DHT22;10824;51.632;4.950;2023-04-06T11:34:22;8.90;84.90
21331;DHT22;10824;51.632;4.950;2023-04-06T11:36:55;9.00;85.20
21331;DHT22;10824;51.632;4.950;2023-04-06T11:39:25;9.00;85.80
21331;DHT22;10824;51.632;4.950;2023-04-06T11:41:57;8.90;85.20
21331;DHT22;10824;51.632;4.950;2023-04-06T11:46:57;8.90;83.90
21331;DHT22;10824;51.632;4.950;2023-04-06T11:49:28;8.80;83.80
21331;DHT22;10824;51.632;4.950;2023-04-06T11:51:58;8.80;82.90
21331;DHT22;10824;51.632;4.950;2023-04-06T11:54:38;8.90;86.10
21331;DHT22;10824;51.632;4.950;2023-04-06T11:57:05;8.90;87.40
21331;DHT22;10824;51.632;4.950;2023-04-06T11:59:33;8.80;83.80
21331;DHT22;10824;51.632;4.950;2023-04-06T12:02:04;8.90;87.80
21331;DHT22;10824;51.632;4.950;2023-04-06T12:04:31;8.90;89.40
21331;DHT22;10824;51.632;4.950;2023-04-06T12:07:00;8.90;88.80
21331;DHT22;10824;51.632;4.950;2023-04-06T12:09:27;8.80;90.60
21331;DHT22;10824;51.632;4.950;2023-04-06T12:11:57;8.70;90.80
21331;DHT22;10824;51.632;4.950;2023-04-06T12:14:25;8.70;89.50
21331;DHT22;10824;51.632;4.950;2023-04-06T12:16:52;8.70;92.00
21331;DHT22;10824;51.632;4.950;2023-04-06T12:19:19;8.70;93.80
21331;DHT22;10824;51.632;4.950;2023-04-06T12:21:46;8.80;95.80
21331;DHT22;10824;51.632;4.950;2023-04-06T12:24:13;8.70;96.10
21331;DHT22;10824;51.632;4.950;2023-04-06T12:26:42;8.70;94.40
21331;DHT22;10824;51.632;4.950;2023-04-06T12:29:14;8.60;94.70
21331;DHT22;10824;51.632;4.950;2023-04-06T12:31:43;8.60;94.40
21331;DHT22;10824;51.632;4.950;2023-04-06T12:34:12;8.70;98.00
21331;DHT22;10824;51.632;4.950;2023-04-06T12:36:39;8.70;97.60
21331;DHT22;10824;51.632;4.950;2023-04-06T12:39:07;8.70;99.00
21331;DHT22;10824;51.632;4.950;2023-04-06T12:41:34;8.70;99.40
21331;DHT22;10824;51.632;4.950;2023-04-06T12:44:02;8.80;99.90
21331;DHT22;10824;51.632;4.950;2023-04-06T12:46:30;8.70;99.90
21331;DHT22;10824;51.632;4.950;2023-04-06T12:48:58;8.70;99.90
21331;DHT22;10824;51.632;4.950;2023-04-06T12:51:30;8.70;99.90
21331;DHT22;10824;51.632;4.950;2023-04-06T12:53:58;8.70;99.90
21331;DHT22;10824;51.632;4.950;2023-04-06T12:56:25;8.80;99.90
21331;DHT22;10824;51.632;4.950;2023-04-06T12:58:55;8.70;99.90
21331;DHT22;10824;51.632;4.950;2023-04-06T13:01:22;8.70;99.90
21331;DHT22;10824;51.632;4.950;2023-04-06T13:03:50;8.70;99.90
21331;DHT22;10824;51.632;4.950;2023-04-06T13:06:19;8.80;99.90
21331;DHT22;10824;51.632;4.950;2023-04-06T13:08:47;8.70;99.90
21331;DHT22;10824;51.632;4.950;2023-04-06T13:11:16;8.70;99.90
21331;DHT22;10824;51.632;4.950;2023-04-06T13:13:45;8.50;99.90
21331;DHT22;10824;51.632;4.950;2023-04-06T13:16:12;8.60;99.90
21331;DHT22;10824;51.632;4.950;2023-04-06T13:18:39;8.60;99.90
21331;DHT22;10824;51.632;4.950;2023-04-06T13:21:08;8.60;99.90
21331;DHT22;10824;51.632;4.950;2023-04-06T13:23:38;8.50;99.90
21331;DHT22;10824;51.632;4.950;2023-04-06T13:26:06;8.60;99.90
21331;DHT22;10824;51.632;4.950;2023-04-06T13:28:36;8.70;99.90
21331;DHT22;10824;51.632;4.950;2023-04-06T13:31:05;8.50;99.90
21331;DHT22;10824;51.632;4.950;2023-04-06T13:33:33;8.40;99.90
21331;DHT22;10824;51.632;4.950;2023-04-06T13:36:03;8.40;99.90
21331;DHT22;10824;51.632;4.950;2023-04-06T13:38:30;8.40;99.90
21331;DHT22;10824;51.632;4.950;2023-04-06T13:40:57;8.50;99.90
21331;DHT22;10824;51.632;4.950;2023-04-06T13:43:26;8.50;99.90
21331;DHT22;10824;51.632;4.950;2023-04-06T13:45:54;8.60;99.90
21331;DHT22;10824;51.632;4.950;2023-04-06T13:48:22;8.50;99.90
21331;DHT22;10824;51.632;4.950;2023-04-06T13:50:51;8.40;99.90
21331;DHT22;10824;51.632;4.950;2023-04-06T13:53:19;8.40;99.90
21331;DHT22;10824;51.632;4.950;2023-04-06T13:55:56;8.50;99.90
21331;DHT22;10824;51.632;4.950;2023-04-06T13:58:23;8.40;99.90
21331;DHT22;10824;51.632;4.950;2023-04-06T14:00:50;8.50;99.90
21331;DHT22;10824;51.632;4.950;2023-04-06T14:03:21;8.40;99.90
21331;DHT22;10824;51.632;4.950;2023-04-06T14:05:49;8.50;99.90
21331;DHT22;10824;51.632;4.950;2023-04-06T14:08:16;8.50;99.90
21331;DHT22;10824;51.632;4.950;2023-04-06T14:10:45;8.50;99.90
21331;DHT22;10824;51.632;4.950;2023-04-06T14:13:16;8.50;99.90
21331;DHT22;10824;51.632;4.950;2023-04-06T14:15:43;8.50;99.90
21331;DHT22;10824;51.632;4.950;2023-04-06T14:18:10;8.40;99.90
21331;DHT22;10824;51.632;4.950;2023-04-06T14:20:38;8.40;99.90
21331;DHT22;10824;51.632;4.950;2023-04-06T14:23:05;8.50;99.90
21331;DHT22;10824;51.632;4.950;2023-04-06T14:25:33;8.50;99.90
21331;DHT22;10824;51.632;4.950;2023-04-06T14:28:01;8.40;99.90
21331;DHT22;10824;51.632;4.950;2023-04-06T14:30:32;8.40;99.90
21331;DHT22;10824;51.632;4.950;2023-04-06T14:32:59;8.40;99.90
21331;DHT22;10824;51.632;4.950;2023-04-06T14:35:27;8.50;99.90
21331;DHT22;10824;51.632;4.950;2023-04-06T14:37:56;8.50;99.90
21331;DHT22;10824;51.632;4.950;2023-04-06T14:40:26;8.60;99.90
21331;DHT22;10824;51.632;4.950;2023-04-06T14:42:53;8.50;99.90
21331;DHT22;10824;51.632;4.950;2023-04-06T14:45:22;8.60;99.90
21331;DHT22;10824;51.632;4.950;2023-04-06T14:47:49;8.70;99.90
21331;DHT22;10824;51.632;4.950;2023-04-06T14:50:17;8.60;99.90
21331;DHT22;10824;51.632;4.950;2023-04-06T14:52:44;8.60;99.90
21331;DHT22;10824;51.632;4.950;2023-04-06T14:55:13;8.50;99.90
21331;DHT22;10824;51.632;4.950;2023-04-06T14:57:40;8.50;99.90
21331;DHT22;10824;51.632;4.950;2023-04-06T15:00:08;8.50;99.90
21331;DHT22;10824;51.632;4.950;2023-04-06T15:02:36;8.50;99.90
21331;DHT22;10824;51.632;4.950;2023-04-06T15:05:04;8.60;99.90
21331;DHT22;10824;51.632;4.950;2023-04-06T15:07:34;8.50;99.90
21331;DHT22;10824;51.632;4.950;2023-04-06T15:10:02;8.50;99.90
21331;DHT22;10824;51.632;4.950;2023-04-06T15:12:29;8.50;99.90
21331;DHT22;10824;51.632;4.950;2023-04-06T15:14:56;8.50;99.90
21331;DHT22;10824;51.632;4.950;2023-04-06T15:17:23;8.60;99.90
21331;DHT22;10824;51.632;4.950;2023-04-06T15:19:52;8.60;99.90
21331;DHT22;10824;51.632;4.950;2023-04-06T15:22:20;8.60;99.90
21331;DHT22;10824;51.632;4.950;2023-04-06T15:24:47;8.60;99.90
21331;DHT22;10824;51.632;4.950;2023-04-06T15:27:14;8.50;99.90
21331;DHT22;10824;51.632;4.950;2023-04-06T15:29:41;8.50;99.90
21331;DHT22;10824;51.632;4.950;2023-04-06T15:32:08;8.60;99.90
21331;DHT22;10824;51.632;4.950;2023-04-06T15:34:36;8.50;99.90
21331;DHT22;10824;51.632;4.950;2023-04-06T15:37:03;8.60;99.90
21331;DHT22;10824;51.632;4.950;2023-04-06T15:39:32;8.60;99.90
21331;DHT22;10824;51.632;4.950;2023-04-06T15:41:59;8.70;99.90
21331;DHT22;10824;51.632;4.950;2023-04-06T15:44:26;8.70;99.90
21331;DHT22;10824;51.632;4.950;2023-04-06T15:46:53;8.70;99.90
21331;DHT22;10824;51.632;4.950;2023-04-06T15:49:20;8.70;99.90
21331;DHT22;10824;51.632;4.950;2023-04-06T15:51:48;8.70;99.90
21331;DHT22;10824;51.632;4.950;2023-04-06T15:54:16;8.70;99.90
21331;DHT22;10824;51.632;4.950;2023-04-06T15:56:46;8.70;99.90
21331;DHT22;10824;51.632;4.950;2023-04-06T15:59:16;8.70;99.90
21331;DHT22;10824;51.632;4.950;2023-04-06T16:01:44;8.70;99.90
21331;DHT22;10824;51.632;4.950;2023-04-06T16:04:12;8.80;99.90
21331;DHT22;10824;51.632;4.950;2023-04-06T16:06:40;8.70;99.90
21331;DHT22;10824;51.632;4.950;2023-04-06T16:09:07;8.80;99.90
21331;DHT22;10824;51.632;4.950;2023-04-06T16:11:34;8.70;99.90
21331;DHT22;10824;51.632;4.950;2023-04-06T16:14:02;8.80;99.90